Weather at Compaq Powdermill Road Heliport

Public forecast

Using degrees Fahrenheit for public forecast. Weather courtesy of forecast.io.

Closest aviation weather report (METAR) to Compaq Powdermill Road Heliport

Report is more than 6 hours old.

Closest report is Laurence G Hanscom Field, 7.9 nm (14.6 km) ENE.

2022/11/14 14:51 (retrieved 2 years ago)

KBED 141451Z 29013G19KT 10SM FEW045 04/M06 A3021 RMK AO2 SLP244 T00441061 51025

Closest aviation forecast (TAF) to Compaq Powdermill Road Heliport

Forecast is more than 12 hours old.

Closest forecast is Laurence G Hanscom Field, 7.9 nm (14.6 km) ENE.

2023/02/22 18:40 (retrieved 1 year ago)

TAF KBED 221738Z 2218/2318 27006KT P6SM BKN200 FM230200 00000KT 1SM -SN BR OVC003 FM230600 09005KT 1 1/2SM -PL BR OVC003 FM231400 05010KT 1 1/2SM -SN BR OVC008 FM231700 04011G18KT 2SM BR VCSH OVC008